createdAt,value
2023-05-02T00:07:57.971Z,16.20
2023-05-02T00:19:58.623Z,14.00
2023-05-02T00:31:58.872Z,16.60
2023-05-02T00:43:59.318Z,15.70
2023-05-02T00:55:59.794Z,17.50
2023-05-02T01:08:00.234Z,18.00
2023-05-02T01:20:00.997Z,16.80
2023-05-02T01:32:01.158Z,16.90
2023-05-02T01:44:01.636Z,14.60
2023-05-02T01:56:02.071Z,15.70
2023-05-02T02:08:02.536Z,17.10
2023-05-02T02:20:03.006Z,13.80
2023-05-02T02:32:03.463Z,14.40
2023-05-02T02:44:03.851Z,16.30
2023-05-02T02:56:04.335Z,16.00
2023-05-02T03:08:04.784Z,17.60
2023-05-02T03:20:05.232Z,16.10
2023-05-02T03:32:05.709Z,17.10
2023-05-02T03:44:06.117Z,17.00
2023-05-02T03:56:06.566Z,17.70
2023-05-02T04:08:07.029Z,19.40
2023-05-02T04:20:07.790Z,15.00
2023-05-02T04:32:07.941Z,16.10
2023-05-02T04:44:08.379Z,16.30
2023-05-02T04:56:08.854Z,13.70
2023-05-02T05:08:09.320Z,12.40
2023-05-02T05:20:09.736Z,11.40
2023-05-02T05:32:10.340Z,9.80
2023-05-02T05:44:10.684Z,9.70
2023-05-02T05:56:11.098Z,7.50
2023-05-02T06:08:11.561Z,9.50
2023-05-02T06:20:12.099Z,9.00
2023-05-02T06:32:12.494Z,9.80
2023-05-02T06:44:12.900Z,18.90
2023-05-02T06:56:13.368Z,8.80
2023-05-02T07:08:13.852Z,8.00
2023-05-02T07:20:14.307Z,7.20
2023-05-02T07:32:14.773Z,3.80
2023-05-02T07:44:15.203Z,4.90
2023-05-02T07:56:15.605Z,3.70
2023-05-02T08:08:16.115Z,5.30
2023-05-02T08:20:16.545Z,6.00
2023-05-02T08:32:17.106Z,7.00
2023-05-02T08:44:17.462Z,6.60
2023-05-02T08:56:17.922Z,6.10
2023-05-02T09:08:18.440Z,11.20
2023-05-02T09:20:18.842Z,7.20
2023-05-02T09:32:19.472Z,8.40
2023-05-02T09:44:19.757Z,6.00
2023-05-02T09:56:20.202Z,5.00
2023-05-02T10:08:20.607Z,4.20
2023-05-02T10:20:21.108Z,4.40
2023-05-02T10:32:21.547Z,4.00
2023-05-02T10:44:21.992Z,3.40
2023-05-02T10:56:22.460Z,4.10
2023-05-02T11:08:23.458Z,3.80
2023-05-02T11:20:23.378Z,4.20
2023-05-02T11:32:23.865Z,4.00
2023-05-02T11:44:24.286Z,3.20
2023-05-02T11:56:24.699Z,4.80
2023-05-02T12:08:25.222Z,4.50
2023-05-02T12:20:25.651Z,3.50
2023-05-02T12:32:27.646Z,2.90
2023-05-02T12:44:26.532Z,5.10
2023-05-02T12:56:27.034Z,4.60
2023-05-02T13:08:27.441Z,5.20
2023-05-02T13:20:27.909Z,3.60
2023-05-02T13:32:28.367Z,4.80
2023-05-02T13:44:28.859Z,5.50
2023-05-02T13:56:29.248Z,4.00
2023-05-02T14:08:29.755Z,4.50
2023-05-02T14:20:30.146Z,4.50
2023-05-02T14:32:30.660Z,3.70
2023-05-02T14:44:31.097Z,4.70
2023-05-02T14:56:31.536Z,3.10
2023-05-02T15:08:31.982Z,3.10
2023-05-02T15:20:32.443Z,3.80
2023-05-02T15:32:32.939Z,16.00
2023-05-02T15:44:33.348Z,3.90
2023-05-02T15:56:33.784Z,4.40
2023-05-02T16:08:34.286Z,4.00
2023-05-02T16:20:34.734Z,4.70
2023-05-02T16:32:35.183Z,30.20
2023-05-02T16:44:35.636Z,8.40
2023-05-02T16:56:36.113Z,6.40
2023-05-02T17:08:36.525Z,5.20
2023-05-02T17:20:36.964Z,7.30
2023-05-02T17:32:37.534Z,7.10
2023-05-02T17:44:37.914Z,8.90
2023-05-02T17:56:38.365Z,8.40
2023-05-02T18:08:38.788Z,10.20
2023-05-02T18:20:39.263Z,13.50
2023-05-02T18:32:39.752Z,11.20
2023-05-02T18:44:40.176Z,11.50
2023-05-02T18:56:40.761Z,11.10
2023-05-02T19:08:41.054Z,10.70
2023-05-02T19:20:41.537Z,12.70
2023-05-02T19:32:42.023Z,12.60
2023-05-02T19:44:42.413Z,12.70
2023-05-02T19:56:42.849Z,15.80
2023-05-02T20:08:43.344Z,15.70
2023-05-02T20:20:43.767Z,18.70
2023-05-02T20:32:44.240Z,17.00
2023-05-02T20:44:44.694Z,14.60
2023-05-02T20:56:45.163Z,12.20
2023-05-02T21:08:45.609Z,16.50
2023-05-02T21:20:46.039Z,15.50
2023-05-02T21:32:46.527Z,16.50
2023-05-02T21:44:46.995Z,15.60
2023-05-02T21:56:47.388Z,17.20
2023-05-02T22:08:47.881Z,17.30
2023-05-02T22:20:48.304Z,16.50
2023-05-02T22:32:48.835Z,15.60
2023-05-02T22:44:53.990Z,21.00
2023-05-02T22:56:49.664Z,17.00
2023-05-02T23:08:50.119Z,19.40
2023-05-02T23:20:50.609Z,20.60
2023-05-02T23:32:51.034Z,22.70
2023-05-02T23:44:51.473Z,22.50
2023-05-02T23:56:51.913Z,23.70
